createdAt,value
2022-12-05T00:00:36.909Z,24.45
2022-12-05T00:05:42.080Z,25.52
2022-12-05T00:10:44.715Z,28.08
2022-12-05T00:15:46.596Z,27.00
2022-12-05T00:20:49.456Z,29.20
2022-12-05T00:25:51.673Z,34.00
2022-12-05T00:30:53.753Z,26.88
2022-12-05T00:35:55.742Z,26.92
2022-12-05T00:41:03.242Z,27.13
2022-12-05T00:46:18.141Z,24.50
2022-12-05T00:51:27.148Z,27.17
2022-12-05T00:56:30.490Z,26.92
2022-12-05T01:01:35.927Z,25.48
2022-12-05T01:06:38.874Z,25.88
2022-12-05T01:11:41.677Z,23.98
2022-12-05T01:16:46.631Z,25.65
2022-12-05T01:21:48.623Z,24.33
2022-12-05T01:26:51.467Z,23.50
2022-12-05T01:31:54.673Z,24.23
2022-12-05T01:36:56.802Z,22.10
2022-12-05T01:41:58.773Z,21.80
2022-12-05T01:47:00.656Z,22.65
2022-12-05T01:52:09.769Z,21.50
2022-12-05T01:57:14.228Z,20.75
2022-12-05T02:02:16.686Z,21.10
2022-12-05T02:07:19.571Z,21.35
2022-12-05T02:12:22.594Z,21.87
2022-12-05T02:17:30.453Z,22.08
2022-12-05T02:23:09.729Z,20.02
2022-12-05T02:28:39.172Z,23.23
2022-12-05T02:34:05.309Z,19.50
2022-12-05T02:39:17.746Z,20.58
2022-12-05T02:44:24.906Z,21.75
2022-12-05T02:49:31.771Z,19.90
2022-12-05T02:54:38.391Z,19.45
2022-12-05T02:59:41.568Z,20.10
2022-12-05T03:04:43.518Z,20.27
2022-12-05T03:09:56.711Z,21.38
2022-12-05T03:15:05.650Z,18.13
2022-12-05T03:20:15.726Z,20.65
2022-12-05T03:25:18.207Z,19.20
2022-12-05T03:30:23.099Z,18.73
2022-12-05T03:35:37.573Z,25.50
2022-12-05T03:40:53.106Z,25.63
2022-12-05T03:46:12.164Z,19.10
2022-12-05T03:51:17.023Z,19.88
2022-12-05T03:56:29.864Z,21.38
2022-12-05T04:01:35.290Z,35.92
2022-12-05T04:06:39.514Z,22.90
2022-12-05T04:11:47.901Z,18.85
2022-12-05T04:17:03.924Z,22.20
2022-12-05T04:22:05.816Z,22.30
2022-12-05T04:27:13.511Z,18.40
2022-12-05T04:32:17.577Z,25.00
2022-12-05T04:37:24.124Z,17.45
2022-12-05T04:42:29.823Z,21.48
2022-12-05T04:47:39.025Z,17.45
2022-12-05T04:52:44.138Z,16.48
2022-12-05T04:57:54.035Z,18.88
2022-12-05T05:03:15.017Z,19.98
2022-12-05T05:08:23.537Z,18.75
2022-12-05T05:13:25.464Z,18.35
2022-12-05T05:18:27.381Z,19.60
2022-12-05T05:23:29.374Z,21.83
2022-12-05T05:28:31.572Z,20.52
2022-12-05T05:33:34.790Z,17.80
2022-12-05T05:38:38.387Z,17.70
2022-12-05T05:48:42.460Z,18.48
2022-12-05T05:53:44.657Z,18.77
2022-12-05T05:58:47.336Z,19.05
2022-12-05T06:03:51.015Z,16.42
2022-12-05T06:13:58.314Z,17.73
2022-12-05T06:19:00.508Z,16.52
2022-12-05T06:24:02.562Z,17.13
2022-12-05T06:29:04.540Z,16.48
2022-12-05T06:34:06.736Z,17.02
2022-12-05T06:39:09.187Z,20.42
2022-12-05T06:44:11.424Z,17.35
2022-12-05T06:49:13.422Z,16.08
2022-12-05T06:54:15.300Z,18.58
2022-12-05T06:59:17.204Z,17.30
2022-12-05T07:04:24.048Z,19.52
2022-12-05T07:09:45.482Z,20.52
2022-12-05T07:14:49.420Z,19.63
2022-12-05T07:19:52.883Z,21.98
2022-12-05T07:24:54.829Z,21.23
2022-12-05T07:29:57.584Z,24.92
2022-12-05T07:35:00.364Z,20.27
2022-12-05T07:40:02.397Z,19.02
2022-12-05T07:45:04.722Z,20.77
2022-12-05T07:50:07.267Z,19.67
2022-12-05T07:55:09.588Z,28.08
2022-12-05T08:00:12.333Z,20.50
2022-12-05T08:05:17.003Z,60.28
2022-12-05T08:10:18.888Z,27.75
2022-12-05T08:15:20.807Z,32.33
2022-12-05T08:20:22.656Z,30.50
2022-12-05T08:25:24.606Z,22.98
2022-12-05T08:30:26.548Z,26.55
2022-12-05T08:35:28.848Z,27.67
2022-12-05T08:40:31.351Z,24.40
2022-12-05T08:45:33.270Z,26.40
2022-12-05T08:50:38.775Z,23.55
2022-12-05T08:55:40.840Z,26.52
2022-12-05T09:00:43.562Z,27.65
2022-12-05T09:05:45.475Z,25.98
2022-12-05T09:10:47.385Z,37.85
2022-12-05T09:15:49.780Z,33.28
2022-12-05T09:20:51.700Z,26.52
2022-12-05T09:25:58.103Z,30.85
2022-12-05T09:31:05.583Z,30.77
2022-12-05T09:36:13.728Z,33.20
2022-12-05T09:41:48.663Z,35.10
2022-12-05T09:47:02.577Z,38.42
2022-12-05T09:52:05.066Z,31.05
2022-12-05T09:57:09.057Z,30.98
2022-12-05T10:02:30.727Z,32.13
2022-12-05T10:07:50.479Z,32.45
2022-12-05T10:13:10.459Z,34.83
2022-12-05T10:18:38.903Z,45.00
2022-12-05T10:23:57.627Z,33.97
2022-12-05T10:29:27.984Z,34.40
2022-12-05T10:34:42.055Z,32.95
2022-12-05T10:39:45.404Z,39.85
2022-12-05T10:44:50.152Z,40.90
2022-12-05T10:49:54.206Z,40.90
2022-12-05T10:55:03.583Z,51.58
2022-12-05T11:00:15.732Z,43.50
2022-12-05T11:05:28.555Z,42.25
2022-12-05T11:10:44.039Z,37.33
2022-12-05T11:15:52.254Z,43.88
2022-12-05T11:21:09.925Z,42.83
2022-12-05T11:26:28.985Z,38.35
2022-12-05T11:31:31.938Z,38.17
2022-12-05T11:36:42.541Z,40.37
2022-12-05T11:42:12.180Z,42.78
2022-12-05T11:47:37.556Z,35.35
2022-12-05T11:52:47.944Z,41.05
2022-12-05T11:58:14.794Z,51.88
2022-12-05T12:03:22.665Z,45.35
2022-12-05T12:10:06.982Z,44.60
2022-12-05T12:15:57.524Z,40.85
2022-12-05T12:21:23.991Z,45.85
2022-12-05T12:26:53.409Z,39.47
2022-12-05T12:32:01.444Z,62.20
2022-12-05T12:37:18.216Z,42.97
2022-12-05T12:42:27.990Z,41.90
2022-12-05T12:48:00.805Z,36.97
2022-12-05T12:53:24.460Z,43.67
2022-12-05T12:58:38.662Z,39.13
2022-12-05T13:03:52.074Z,39.65
2022-12-05T13:08:58.703Z,41.30
2022-12-05T13:14:02.353Z,44.15
2022-12-05T13:19:06.903Z,45.03
2022-12-05T13:24:13.667Z,38.47
2022-12-05T13:29:31.703Z,39.97
2022-12-05T13:34:46.480Z,40.88
2022-12-05T13:40:13.507Z,43.03
2022-12-05T13:45:20.766Z,42.63
2022-12-05T13:50:31.272Z,41.03
2022-12-05T13:56:05.260Z,40.63
2022-12-05T14:01:28.286Z,43.00
2022-12-05T14:06:39.239Z,45.03
2022-12-05T14:12:10.114Z,35.45
2022-12-05T14:17:12.283Z,42.95
2022-12-05T14:22:52.599Z,44.17
2022-12-05T14:27:58.410Z,39.00
2022-12-05T14:33:02.574Z,36.33
2022-12-05T14:38:18.752Z,37.60
2022-12-05T14:43:31.822Z,36.92
2022-12-05T14:48:47.837Z,37.22
2022-12-05T14:53:50.687Z,39.92
2022-12-05T14:58:57.021Z,33.55
2022-12-05T15:04:08.155Z,34.47
2022-12-05T15:09:40.017Z,35.33
2022-12-05T15:14:54.249Z,43.42
2022-12-05T15:20:05.794Z,43.35
2022-12-05T15:25:35.436Z,52.53
2022-12-05T15:30:40.114Z,38.22
2022-12-05T15:35:48.339Z,41.75
2022-12-05T15:40:50.403Z,65.22
2022-12-05T15:46:20.470Z,66.78
2022-12-05T15:51:37.661Z,68.93
2022-12-05T15:56:49.476Z,68.38
2022-12-05T16:01:59.094Z,65.03
2022-12-05T16:07:06.520Z,70.80
2022-12-05T16:12:31.332Z,55.55
2022-12-05T16:18:01.591Z,47.17
2022-12-05T16:23:28.803Z,58.40
2022-12-05T16:28:33.640Z,58.28
2022-12-05T16:33:40.188Z,48.42
2022-12-05T16:38:48.412Z,52.20
2022-12-05T16:43:53.042Z,93.15
2022-12-05T16:49:13.732Z,69.20
2022-12-05T16:54:15.659Z,39.72
2022-12-05T16:59:24.213Z,47.83
2022-12-05T17:04:26.450Z,55.50
2022-12-05T17:09:28.393Z,45.90
2022-12-05T17:14:30.276Z,48.20
2022-12-05T17:19:33.212Z,50.13
2022-12-05T17:24:35.743Z,59.37
2022-12-05T17:29:38.049Z,62.08
2022-12-05T17:34:39.966Z,76.30
2022-12-05T17:39:41.898Z,83.63
2022-12-05T17:44:44.005Z,71.60
2022-12-05T17:49:45.883Z,58.95
2022-12-05T17:54:47.840Z,47.67
2022-12-05T17:59:49.825Z,50.10
2022-12-05T18:04:51.909Z,50.78
2022-12-05T18:09:53.879Z,51.85
2022-12-05T18:14:55.961Z,62.22
2022-12-05T18:19:58.196Z,60.67
2022-12-05T18:25:01.755Z,44.78
2022-12-05T18:35:12.694Z,48.30
2022-12-05T18:40:15.284Z,50.03
2022-12-05T18:45:17.403Z,51.78
2022-12-05T18:50:19.461Z,55.42
2022-12-05T18:55:43.653Z,83.65
2022-12-05T19:00:43.232Z,71.90
2022-12-05T19:05:45.338Z,108.35
2022-12-05T19:10:47.295Z,77.18
2022-12-05T19:15:49.833Z,123.22
2022-12-05T19:20:52.014Z,64.47
2022-12-05T19:25:59.284Z,91.97
2022-12-05T19:31:11.093Z,51.00
2022-12-05T19:36:14.372Z,68.35
2022-12-05T19:41:19.750Z,69.28
2022-12-05T19:46:28.856Z,61.83
2022-12-05T19:51:36.803Z,71.93
2022-12-05T19:56:41.082Z,60.58
2022-12-05T20:01:43.576Z,50.85
2022-12-05T20:06:49.436Z,58.47
2022-12-05T20:11:55.264Z,79.03
2022-12-05T20:17:05.380Z,69.95
2022-12-05T20:22:07.388Z,55.17
2022-12-05T20:27:09.582Z,50.00
2022-12-05T20:32:11.658Z,52.63
2022-12-05T20:37:13.683Z,54.28
2022-12-05T20:42:17.835Z,51.13
2022-12-05T20:47:19.976Z,71.68
2022-12-05T20:52:21.978Z,62.45
2022-12-05T20:57:23.899Z,63.65
2022-12-05T21:02:26.678Z,59.70
2022-12-05T21:07:28.912Z,53.10
2022-12-05T21:12:30.983Z,51.25
2022-12-05T21:17:33.002Z,50.50
2022-12-05T21:22:35.294Z,48.55
2022-12-05T21:27:37.277Z,46.58
2022-12-05T21:32:39.540Z,113.63
2022-12-05T21:37:41.530Z,84.75
2022-12-05T21:42:44.061Z,84.70
2022-12-05T21:47:46.265Z,66.13
2022-12-05T21:52:48.193Z,144.38
2022-12-05T21:57:50.079Z,51.08
2022-12-05T22:02:54.669Z,51.38
2022-12-05T22:07:56.826Z,52.13
2022-12-05T22:12:58.871Z,53.08
2022-12-05T22:18:00.852Z,53.45
2022-12-05T22:23:02.720Z,49.05
2022-12-05T22:28:04.752Z,51.28
2022-12-05T22:33:09.052Z,46.78
2022-12-05T22:38:10.940Z,47.05
2022-12-05T22:43:12.983Z,49.92
2022-12-05T22:48:15.092Z,44.47
2022-12-05T22:53:22.390Z,44.88
2022-12-05T22:58:24.217Z,46.70
2022-12-05T23:03:26.226Z,55.25
2022-12-05T23:08:28.412Z,49.45
2022-12-05T23:13:32.043Z,48.50
2022-12-05T23:18:56.523Z,50.45
2022-12-05T23:24:02.300Z,54.38
2022-12-05T23:29:04.534Z,49.60
2022-12-05T23:34:07.322Z,52.90
2022-12-05T23:39:09.360Z,62.33
2022-12-05T23:44:11.267Z,62.35
2022-12-05T23:49:13.517Z,52.35
2022-12-05T23:54:15.444Z,51.65
2022-12-05T23:59:17.284Z,55.22
